Time;durP1;ratioP1;P1;durP2;ratioP2;P2;SDS_P1;SDS_P2;PMS_P1;PMS_P2;Temp;Humidity;BMP_temperature;BMP_pressure;BME280_temperature;BME280_humidity;BME280_pressure;Samples;Min_cycle;Max_cycle;Signal;HPM_P1;HPM_P2
2023/02/26 08:15:23;;;;;;;59.90;20.20;;;;;;;5.60;100.00;100292.06;103300;1289;615294;-80
2023/02/26 08:17:52;;;;;;;51.10;18.80;;;;;;;5.96;100.00;100299.34;103053;1292;60412;-79
2023/02/26 08:20:18;;;;;;;52.00;19.20;;;;;;;6.13;100.00;100304.27;103301;1289;61638;-80
2023/02/26 08:22:43;;;;;;;50.50;19.40;;;;;;;6.27;100.00;100309.73;103305;1286;60405;-81
2023/02/26 08:25:09;;;;;;;53.90;18.80;;;;;;;6.32;100.00;100311.44;103268;1287;60431;-80
2023/02/26 08:27:51;;;;;;;49.90;18.20;;;;;;;6.35;100.00;100309.66;103022;1295;600331;-80
2023/02/26 08:33:48;;;;;;;50.90;17.00;;;;;;;6.56;100.00;100310.91;103098;1289;600886;-80
2023/02/26 08:36:13;;;;;;;42.90;15.80;;;;;;;6.68;100.00;100320.42;103232;1292;60799;-80
2023/02/26 08:38:39;;;;;;;45.10;16.30;;;;;;;6.76;100.00;100325.52;102869;1292;60407;-79
2023/02/26 08:41:04;;;;;;;44.50;17.30;;;;;;;6.82;100.00;100326.52;103243;1292;60399;-80
2023/02/26 08:43:30;;;;;;;57.40;19.40;;;;;;;6.89;100.00;100326.69;103359;1295;73305;-82
2023/02/26 08:45:56;;;;;;;68.80;23.30;;;;;;;6.89;100.00;100329.86;103391;1291;60345;-80
2023/02/26 08:48:23;;;;;;;89.70;29.20;;;;;;;6.88;100.00;100329.90;103353;1285;234783;-82
2023/02/26 08:50:49;;;;;;;87.10;30.30;;;;;;;6.85;100.00;100333.44;103596;1289;60392;-82
2023/02/26 08:53:15;;;;;;;95.60;29.50;;;;;;;6.89;100.00;100328.25;103823;1289;60343;-81
2023/02/26 08:55:40;;;;;;;71.90;26.10;;;;;;;6.95;100.00;100327.86;103686;1291;60395;-81
2023/02/26 08:58:06;;;;;;;67.60;23.20;;;;;;;7.00;100.00;100326.39;103605;1291;60350;-81
2023/02/26 09:03:54;;;;;;;56.30;20.90;;;;;;;7.10;100.00;100342.80;103490;1288;74895;-80
2023/02/26 09:06:20;;;;;;;58.20;21.40;;;;;;;7.13;100.00;100353.98;103369;1292;60415;-79
2023/02/26 09:09:02;;;;;;;63.10;22.30;;;;;;;7.15;100.00;100360.40;103091;1292;601093;-81
2023/02/26 09:11:29;;;;;;;56.70;21.30;;;;;;;7.16;100.00;100370.28;103485;1292;60393;-81
2023/02/26 09:13:57;;;;;;;51.60;18.40;;;;;;;7.23;100.00;100380.58;103360;1289;60421;-80
2023/02/26 09:16:24;;;;;;;49.70;18.20;;;;;;;7.26;100.00;100384.73;103303;1291;72735;-81
2023/02/26 09:18:49;;;;;;;60.20;20.00;;;;;;;7.27;100.00;100394.85;103448;1290;60292;-80
2023/02/26 09:21:15;;;;;;;53.20;18.20;;;;;;;7.29;100.00;100400.30;103423;1292;60387;-79
2023/02/26 09:23:41;;;;;;;47.70;18.00;;;;;;;7.31;100.00;100402.20;103162;1292;1196726;-80
2023/02/26 09:26:07;;;;;;;45.80;17.10;;;;;;;7.29;100.00;100413.05;103450;1286;60398;-81
2023/02/26 09:34:58;;;;;;;46.20;17.30;;;;;;;7.44;100.00;100417.45;103444;1288;601043;-79
2023/02/26 09:37:23;;;;;;;41.60;15.80;;;;;;;7.50;100.00;100420.42;103554;1290;60349;-81
2023/02/26 09:39:49;;;;;;;39.10;13.60;;;;;;;7.55;100.00;100425.73;103779;1285;60355;-80
2023/02/26 09:45:41;;;;;;;30.50;12.30;;;;;;;7.62;100.00;100412.67;103542;1289;71220;-79
2023/02/26 09:48:10;;;;;;;31.10;12.20;;;;;;;7.70;100.00;100413.13;103278;1283;241833;-80
2023/02/26 09:50:43;;;;;;;33.30;12.60;;;;;;;7.85;100.00;100414.41;103738;1287;62159;-80
2023/02/26 09:53:26;;;;;;;30.40;11.90;;;;;;;8.00;100.00;100419.84;103735;1287;72445;-80
2023/02/26 09:55:57;;;;;;;33.00;12.90;;;;;;;8.11;100.00;100419.66;103778;1285;76590;-80
2023/02/26 09:58:29;;;;;;;31.10;12.40;;;;;;;8.09;100.00;100410.09;103732;1287;73693;-80
2023/02/26 10:01:00;;;;;;;39.00;14.60;;;;;;;8.05;100.00;100419.70;103788;1282;62746;-78
2023/02/26 10:03:41;;;;;;;41.60;14.10;;;;;;;7.99;100.00;100424.83;103722;1285;60349;-79
2023/02/26 10:06:22;;;;;;;51.10;17.00;;;;;;;7.92;100.00;100429.45;103672;1287;74259;-79
2023/02/26 10:09:10;;;;;;;43.00;17.00;;;;;;;7.89;100.00;100427.41;103808;1283;74766;-82
2023/02/26 10:11:46;;;;;;;41.20;16.30;;;;;;;7.85;100.00;100423.48;103732;1286;73020;-80
2023/02/26 10:14:17;;;;;;;46.70;16.00;;;;;;;7.88;100.00;100429.16;103819;1286;62358;-81
2023/02/26 10:16:48;;;;;;;40.30;16.40;;;;;;;7.87;100.00;100429.58;103569;1288;60721;-81
2023/02/26 10:19:23;;;;;;;48.80;17.40;;;;;;;7.84;100.00;100434.20;103551;1285;73461;-81
2023/02/26 10:22:12;;;;;;;54.30;18.30;;;;;;;7.86;100.00;100429.63;103672;1284;74997;-81
2023/02/26 10:24:45;;;;;;;56.30;20.00;;;;;;;7.89;100.00;100433.63;103483;1285;73148;-80
2023/02/26 10:27:20;;;;;;;41.30;16.90;;;;;;;7.89;100.00;100436.15;103556;1288;62654;-80
2023/02/26 10:30:01;;;;;;;50.10;17.40;;;;;;;7.82;100.00;100441.04;103548;1290;61610;-82
2023/02/26 10:33:22;;;;;;;45.80;16.70;;;;;;;7.69;100.00;100434.56;103341;1284;73269;-80
2023/02/26 10:36:00;;;;;;;42.20;15.60;;;;;;;7.66;100.00;100438.59;102792;1300;74050;-81
2023/02/26 10:38:30;;;;;;;43.00;15.50;;;;;;;7.61;100.00;100440.44;102817;1297;73555;-79
2023/02/26 10:41:03;;;;;;;44.10;16.60;;;;;;;7.59;100.00;100439.55;102632;1298;62417;-80
2023/02/26 10:43:47;;;;;;;47.40;17.90;;;;;;;7.59;100.00;100447.17;102545;1300;61563;-80
2023/02/26 10:46:31;;;;;;;;;;;;;;;7.56;100.00;100455.00;102688;1300;74175;-80
2023/02/26 10:49:54;;;;;;;45.00;17.20;;;;;;;7.52;100.00;100458.52;103181;1290;601038;-81
2023/02/26 10:52:29;;;;;;;43.10;15.00;;;;;;;7.47;100.00;100470.52;102215;1314;63566;-80
2023/02/26 10:55:36;;;;;;;39.40;14.90;;;;;;;7.46;100.00;100465.71;102159;1308;61102;-80
2023/02/26 11:01:23;;;;;;;44.70;16.10;;;;;;;7.41;100.00;100467.89;103089;1290;600815;-80
2023/02/26 11:04:04;;;;;;;42.90;16.20;;;;;;;7.40;100.00;100461.80;103216;1291;62793;-82
2023/02/26 11:06:39;;;;;;;45.90;16.40;;;;;;;7.40;100.00;100462.77;102976;1289;60320;-81
2023/02/26 11:12:27;;;;;;;47.10;17.20;;;;;;;7.44;100.00;100477.88;103505;1294;72437;-82
2023/02/26 11:14:56;;;;;;;51.30;18.80;;;;;;;7.43;100.00;100482.40;101214;1291;2915132;-81
2023/02/26 11:17:31;;;;;;;47.20;17.80;;;;;;;7.45;100.00;100483.29;103496;1285;60385;-81
2023/02/26 11:19:58;;;;;;;48.70;18.30;;;;;;;7.43;100.00;100487.44;103643;1285;60333;-81
2023/02/26 11:22:28;;;;;;;50.30;19.70;;;;;;;7.43;100.00;100488.25;104134;1285;73471;-81
2023/02/26 11:24:55;;;;;;;52.20;19.70;;;;;;;7.41;100.00;100485.32;103632;1285;72924;-81
2023/02/26 11:27:35;;;;;;;50.60;19.10;;;;;;;7.43;100.00;100482.98;103731;1285;73842;-82
2023/02/26 11:30:13;;;;;;;51.10;21.30;;;;;;;7.48;100.00;100490.74;103801;1285;62487;-81
2023/02/26 11:32:39;;;;;;;48.40;20.50;;;;;;;7.52;100.00;100493.16;103156;1286;61392;-80
2023/02/26 11:35:08;;;;;;;51.90;20.80;;;;;;;7.54;100.00;100489.40;103700;1285;60264;-81
2023/02/26 11:37:54;;;;;;;61.20;23.20;;;;;;;7.62;100.00;100489.55;103846;1285;74008;-80
2023/02/26 11:40:40;;;;;;;63.80;22.50;;;;;;;7.67;100.00;100492.02;103954;1285;73560;-81
2023/02/26 11:46:28;;;;;;;53.50;21.40;;;;;;;7.78;100.00;100501.65;103537;1285;60273;-81
2023/02/26 11:48:57;;;;;;;57.70;22.00;;;;;;;7.78;100.00;100504.02;103471;1288;60395;-83
2023/02/26 11:51:26;;;;;;;56.70;21.30;;;;;;;7.78;100.00;100507.08;103492;1286;74835;-81
2023/02/26 11:53:54;;;;;;;57.80;22.00;;;;;;;7.71;100.00;100510.61;103585;1285;73811;-81
2023/02/26 11:56:29;;;;;;;55.80;21.10;;;;;;;7.66;100.00;100509.17;103813;1285;62337;-79
2023/02/26 11:59:00;;;;;;;60.90;21.20;;;;;;;7.65;100.00;100511.41;103649;1289;61652;-80
2023/02/26 12:01:28;;;;;;;56.20;21.20;;;;;;;7.67;100.00;100510.33;103450;1288;74509;-81
2023/02/26 12:03:57;;;;;;;61.10;22.70;;;;;;;7.72;100.00;100511.70;103579;1287;73868;-79
2023/02/26 12:06:26;;;;;;;56.40;21.20;;;;;;;7.74;100.00;100511.74;103267;1289;73853;-78
2023/02/26 12:12:42;;;;;;;63.10;23.00;;;;;;;7.84;100.00;100515.65;103235;1289;600120;-77
2023/02/26 12:18:45;;;;;;;68.80;23.80;;;;;;;7.92;100.00;100533.02;103428;1290;61691;-78
2023/02/26 12:24:51;;;;;;;73.60;27.20;;;;;;;7.89;100.00;100533.60;103037;1294;600251;-78
2023/02/26 12:27:47;;;;;;;80.80;32.90;;;;;;;7.88;100.00;100540.98;103011;1292;62547;-79
2023/02/26 12:30:39;;;;;;;68.90;25.20;;;;;;;7.88;100.00;100544.86;103127;1291;60384;-78
2023/02/26 12:33:20;;;;;;;52.80;20.00;;;;;;;7.86;100.00;100547.50;103165;1289;73293;-79
2023/02/26 12:36:16;;;;;;;59.10;21.00;;;;;;;7.85;100.00;100548.02;103558;1286;73767;-81
2023/02/26 12:38:55;;;;;;;49.10;19.30;;;;;;;7.83;100.00;100553.94;103388;1286;257716;-81
2023/02/26 12:41:29;;;;;;;67.00;22.80;;;;;;;7.81;100.00;100551.06;103549;1286;62363;-79
2023/02/26 12:43:59;;;;;;;59.00;22.20;;;;;;;7.82;100.00;100554.83;103539;1285;60800;-81
2023/02/26 12:46:33;;;;;;;60.90;22.30;;;;;;;7.81;100.00;100550.30;103606;1285;73658;-80
2023/02/26 12:49:09;;;;;;;55.30;22.00;;;;;;;7.74;100.00;100555.77;103630;1285;73134;-79
2023/02/26 12:51:41;;;;;;;62.40;21.30;;;;;;;7.73;100.00;100567.30;103582;1286;73061;-80
2023/02/26 12:54:34;;;;;;;59.20;22.10;;;;;;;7.74;100.00;100569.41;103594;1286;62246;-80
2023/02/26 13:00:36;;;;;;;61.30;22.10;;;;;;;7.73;100.00;100586.63;103567;1285;72803;-78
2023/02/26 13:03:33;;;;;;;66.20;22.50;;;;;;;7.74;100.00;100587.64;103444;1286;73798;-79
2023/02/26 13:11:58;;;;;;;56.60;22.10;;;;;;;7.72;100.00;100601.13;103150;1290;600062;-79
2023/02/26 13:14:32;;;;;;;58.10;22.00;;;;;;;7.67;100.00;100603.44;103393;1286;61582;-79
2023/02/26 13:17:11;;;;;;;60.40;23.40;;;;;;;7.62;100.00;100607.98;103316;1286;60310;-79
2023/02/26 13:19:54;;;;;;;59.00;23.00;;;;;;;7.60;100.00;100616.04;103150;1290;72178;-79
2023/02/26 13:22:21;;;;;;;56.90;20.80;;;;;;;7.57;100.00;100617.68;103169;1286;75569;-79
2023/02/26 13:25:19;;;;;;;64.00;21.70;;;;;;;7.49;100.00;100616.41;103421;1285;173873;-80
2023/02/26 13:27:46;;;;;;;71.90;21.20;;;;;;;7.46;100.00;100626.23;103059;1298;61518;-80
2023/02/26 13:30:17;;;;;;;54.70;22.20;;;;;;;7.41;100.00;100623.54;102888;1293;61441;-80
2023/02/26 13:32:46;;;;;;;56.10;22.20;;;;;;;7.36;100.00;100626.28;102954;1297;72929;-79
2023/02/26 13:35:20;;;;;;;65.10;23.60;;;;;;;7.33;100.00;100625.90;102610;1297;74395;-80
2023/02/26 13:37:51;;;;;;;60.40;22.20;;;;;;;7.35;100.00;100628.23;102950;1292;73929;-80
2023/02/26 13:40:37;;;;;;;68.30;25.60;;;;;;;7.34;100.00;100622.70;102981;1292;61454;-81
2023/02/26 13:47:04;;;;;;;194.70;79.70;;;;;;;7.32;100.00;100625.84;103760;1282;600985;-81
2023/02/26 13:50:01;;;;;;;101.70;39.10;;;;;;;7.25;100.00;100630.19;103691;1287;61541;-81
2023/02/26 13:52:33;;;;;;;93.30;36.90;;;;;;;7.19;100.00;100631.08;103253;1289;60295;-81
2023/02/26 13:55:01;;;;;;;70.60;27.30;;;;;;;7.11;100.00;100630.33;103258;1289;73477;-80
2023/02/26 14:01:19;;;;;;;123.50;47.10;;;;;;;7.04;100.00;100627.02;102985;1292;601061;-79
2023/02/26 14:04:10;;;;;;;75.50;26.60;;;;;;;7.00;100.00;100621.95;103093;1296;61511;-79
2023/02/26 14:06:43;;;;;;;72.00;26.40;;;;;;;7.02;100.00;100622.25;102731;1297;61464;-79
2023/02/26 14:09:20;;;;;;;69.00;25.50;;;;;;;6.99;100.00;100618.56;102641;1291;73502;-81
2023/02/26 14:12:03;;;;;;;67.70;25.70;;;;;;;6.93;100.00;100616.48;102790;1293;72219;-79
2023/02/26 14:18:00;;;;;;;61.30;24.00;;;;;;;6.67;100.00;100606.83;103078;1292;600362;-79
2023/02/26 14:20:29;;;;;;;59.50;23.60;;;;;;;6.52;100.00;100604.45;103048;1291;62282;-79
2023/02/26 14:23:08;;;;;;;83.30;29.30;;;;;;;6.43;100.00;100606.47;103084;1294;60769;-79
2023/02/26 14:25:36;;;;;;;92.60;32.30;;;;;;;6.30;100.00;100605.03;103033;1295;74356;-79
2023/02/26 14:28:24;;;;;;;93.30;31.80;;;;;;;6.21;100.00;100603.45;102908;1298;74857;-80
2023/02/26 14:30:58;;;;;;;80.70;30.30;;;;;;;6.16;100.00;100604.39;102288;1294;1180302;-79
2023/02/26 14:33:29;;;;;;;71.50;26.90;;;;;;;6.11;100.00;100603.68;103193;1288;62445;-80
2023/02/26 14:35:56;;;;;;;78.10;30.20;;;;;;;6.08;100.00;100603.28;103117;1288;61381;-79
2023/02/26 14:38:34;;;;;;;81.70;30.60;;;;;;;6.05;100.00;100605.02;103120;1289;73408;-79
2023/02/26 14:41:17;;;;;;;81.20;29.50;;;;;;;5.99;100.00;100603.23;103243;1295;73837;-79
2023/02/26 14:43:50;;;;;;;76.20;29.10;;;;;;;5.96;100.00;100613.02;103407;1290;73311;-81
2023/02/26 14:46:24;;;;;;;77.60;31.00;;;;;;;5.97;100.00;100617.08;103512;1286;61479;-79
2023/02/26 14:48:50;;;;;;;81.70;29.30;;;;;;;6.01;100.00;100622.57;103263;1292;60382;-79
2023/02/26 14:51:49;;;;;;;74.10;29.30;;;;;;;6.01;100.00;100620.71;103467;1286;60363;-79
2023/02/26 14:54:18;;;;;;;76.80;30.50;;;;;;;6.00;100.00;100620.73;103323;1292;74621;-80
2023/02/26 14:56:52;;;;;;;72.80;29.90;;;;;;;6.00;100.00;100627.48;103325;1287;73862;-80
2023/02/26 14:59:30;;;;;;;76.00;29.80;;;;;;;5.99;100.00;100627.55;103565;1288;61512;-79
2023/02/26 15:02:11;;;;;;;87.70;34.10;;;;;;;5.94;100.00;100615.13;103504;1286;60380;-79
2023/02/26 15:04:45;;;;;;;107.00;40.80;;;;;;;5.84;100.00;100617.77;103519;1289;74159;-80
2023/02/26 15:07:26;;;;;;;96.60;36.60;;;;;;;5.79;100.00;100610.71;103741;1289;74892;-79
2023/02/26 15:09:58;;;;;;;122.00;42.50;;;;;;;5.72;100.00;100602.76;103350;1286;72418;-80
2023/02/26 15:12:35;;;;;;;135.10;46.40;;;;;;;5.62;100.00;100606.19;103644;1286;61170;-80
2023/02/26 15:15:24;;;;;;;105.90;39.40;;;;;;;5.54;100.00;100596.42;103528;1286;60455;-79
2023/02/26 15:18:12;;;;;;;103.60;38.00;;;;;;;5.44;100.00;100595.64;102771;1295;75699;-80
2023/02/26 15:20:42;;;;;;;103.30;36.80;;;;;;;5.37;100.00;100607.20;102791;1297;74664;-80
2023/02/26 15:23:18;;;;;;;98.00;35.70;;;;;;;5.32;100.00;100605.86;102887;1298;73941;-80
2023/02/26 15:25:47;;;;;;;99.20;36.90;;;;;;;5.30;100.00;100608.95;102925;1294;62206;-80
2023/02/26 15:28:28;;;;;;;87.30;33.10;;;;;;;5.28;100.00;100614.28;102729;1297;61402;-79
2023/02/26 15:30:55;;;;;;;83.00;30.30;;;;;;;5.27;100.00;100618.92;102758;1294;72304;-80
2023/02/26 15:33:24;;;;;;;93.50;31.10;;;;;;;5.24;100.00;100622.83;102608;1297;75299;-79
2023/02/26 15:35:51;;;;;;;89.50;31.40;;;;;;;5.18;100.00;100624.73;102877;1295;73121;-79
2023/02/26 15:38:18;;;;;;;91.80;30.70;;;;;;;5.15;100.00;100635.66;102845;1295;61492;-79
2023/02/26 15:40:44;;;;;;;84.50;29.80;;;;;;;5.13;100.00;100646.41;102397;1296;60438;-80
2023/02/26 15:46:40;;;;;;;93.40;32.90;;;;;;;5.12;100.00;100666.58;102754;1295;74978;-80
2023/02/26 15:49:19;;;;;;;;;;;;;;;5.15;100.00;100679.85;102485;1294;73928;-80
2023/02/26 15:51:46;;;;;;;86.10;32.60;;;;;;;5.16;100.00;100683.95;102795;1295;60525;-77
2023/02/26 15:54:18;;;;;;;81.90;31.10;;;;;;;5.18;100.00;100694.73;102661;1295;60847;-77
2023/02/26 15:56:45;;;;;;;84.30;30.00;;;;;;;5.23;100.00;100698.54;103410;1289;74356;-79
2023/02/26 15:59:25;;;;;;;90.40;32.60;;;;;;;5.26;100.00;100708.13;103458;1286;74578;-80
2023/02/26 16:01:51;;;;;;;90.20;33.30;;;;;;;5.25;100.00;100718.95;103314;1286;73916;-80
2023/02/26 16:04:19;;;;;;;80.80;30.10;;;;;;;5.24;100.00;100719.41;103420;1287;60378;-80
2023/02/26 16:06:51;;;;;;;77.50;29.60;;;;;;;5.28;100.00;100720.58;103502;1286;62063;-78
2023/02/26 16:09:27;;;;;;;145.90;30.50;;;;;;;5.31;100.00;100717.20;103566;1286;74339;-77
2023/02/26 16:12:01;;;;;;;133.70;28.80;;;;;;;5.32;100.00;100726.90;103321;1289;76837;-80
2023/02/26 16:17:52;;;;;;;240.70;32.90;;;;;;;5.26;100.00;100755.40;103354;1286;62475;-80
2023/02/26 16:20:21;;;;;;;94.70;32.00;;;;;;;5.23;100.00;100765.34;103307;1289;61643;-80
2023/02/26 16:22:52;;;;;;;84.20;33.30;;;;;;;5.20;100.00;100772.92;103691;1288;74586;-80
2023/02/26 16:25:28;;;;;;;92.70;34.00;;;;;;;5.19;100.00;100777.41;103577;1287;74650;-79
2023/02/26 16:28:07;;;;;;;96.00;35.80;;;;;;;5.16;100.00;100775.63;103566;1287;73944;-79
2023/02/26 16:30:36;;;;;;;99.40;35.70;;;;;;;5.17;100.00;100776.48;102951;1297;62117;-79
2023/02/26 16:33:04;;;;;;;93.70;35.60;;;;;;;5.21;100.00;100775.71;103593;1285;61799;-78
2023/02/26 16:39:19;;;;;;;97.30;36.60;;;;;;;5.28;100.00;100780.24;102873;1289;600231;-79
2023/02/26 16:41:48;;;;;;;289.60;43.40;;;;;;;5.28;100.00;100780.38;102872;1295;60564;-79
2023/02/26 16:47:40;;;;;;;114.10;41.80;;;;;;;5.23;100.00;100776.27;102853;1295;600334;-79
2023/02/26 16:50:24;;;;;;;115.30;40.00;;;;;;;5.23;100.00;100779.67;103103;1291;60406;-79
2023/02/26 16:52:58;;;;;;;108.20;40.80;;;;;;;5.19;100.00;100788.05;102837;1292;60683;-79
2023/02/26 16:55:26;;;;;;;108.90;39.60;;;;;;;5.19;100.00;100795.70;102856;1298;72970;-79
2023/02/26 16:57:53;;;;;;;104.80;39.60;;;;;;;5.21;100.00;100795.73;103195;1289;74770;-79
2023/02/26 17:00:31;;;;;;;96.40;36.00;;;;;;;5.20;100.00;100791.25;103122;1285;206456;-80
2023/02/26 17:06:21;;;;;;;99.20;34.80;;;;;;;5.07;100.00;100798.77;103014;1290;61637;-80
2023/02/26 17:08:52;;;;;;;101.30;36.80;;;;;;;5.06;100.00;100803.29;102884;1287;71064;-81
2023/02/26 17:11:38;;;;;;;98.30;37.80;;;;;;;5.06;100.00;100798.22;103121;1293;75188;-78
2023/02/26 17:14:21;;;;;;;104.70;38.70;;;;;;;5.04;100.00;100801.09;103340;1292;74159;-78
2023/02/26 17:16:48;;;;;;;97.90;37.50;;;;;;;5.03;100.00;100804.92;103151;1286;60959;-79
2023/02/26 17:22:36;;;;;;;97.40;38.50;;;;;;;4.95;100.00;100810.03;103298;1288;76654;-78
2023/02/26 17:25:02;;;;;;;101.20;38.40;;;;;;;4.90;100.00;100809.91;103063;1289;60421;-78
2023/02/26 17:30:58;;;;;;;102.10;36.30;;;;;;;4.92;100.00;100827.48;103297;1283;601078;-80
2023/02/26 17:33:24;;;;;;;98.80;34.90;;;;;;;4.92;100.00;100829.98;103431;1286;60320;-81
2023/02/26 17:35:51;;;;;;;83.90;32.50;;;;;;;4.93;100.00;100840.16;103632;1285;60435;-80
2023/02/26 17:41:48;;;;;;;74.50;26.90;;;;;;;4.93;100.00;100857.99;102567;1295;600906;-80
2023/02/26 17:44:13;;;;;;;68.10;25.70;;;;;;;4.89;100.00;100854.62;103004;1292;60359;-80
2023/02/26 17:46:42;;;;;;;65.90;24.80;;;;;;;4.86;100.00;100844.86;102600;1292;60378;-78
2023/02/26 17:49:10;;;;;;;72.00;27.50;;;;;;;4.84;100.00;100832.17;103086;1294;60291;-80
2023/02/26 17:51:38;;;;;;;76.90;28.20;;;;;;;4.81;100.00;100817.33;103117;1291;72273;-79
2023/02/26 17:54:04;;;;;;;76.10;28.90;;;;;;;4.75;100.00;100819.59;103308;1292;72512;-81
2023/02/26 17:56:32;;;;;;;86.40;33.40;;;;;;;4.69;100.00;100820.02;103237;1290;211583;-80
2023/02/26 17:58:58;;;;;;;81.90;31.30;;;;;;;4.64;100.00;100810.86;103659;1285;61511;-80
2023/02/26 18:01:27;;;;;;;89.80;35.00;;;;;;;4.60;100.00;100800.17;103552;1290;73675;-81
2023/02/26 18:03:53;;;;;;;92.00;33.90;;;;;;;4.54;100.00;100797.58;103609;1286;75700;-80
2023/02/26 18:06:20;;;;;;;89.00;34.10;;;;;;;4.47;100.00;100795.86;103562;1288;74023;-80
2023/02/26 18:08:47;;;;;;;73.50;29.50;;;;;;;4.44;100.00;100793.50;103712;1290;60376;-81
2023/02/26 18:11:14;;;;;;;77.90;32.70;;;;;;;4.43;100.00;100796.76;103620;1285;60564;-81
2023/02/26 18:13:40;;;;;;;90.40;32.20;;;;;;;4.39;100.00;100808.42;103699;1286;74554;-80
2023/02/26 18:16:32;;;;;;;76.10;28.50;;;;;;;4.39;100.00;100810.81;102899;1292;600898;-78
2023/02/26 18:18:58;;;;;;;71.40;28.00;;;;;;;4.37;100.00;100821.63;103245;1292;61476;-79
2023/02/26 18:21:25;;;;;;;72.60;26.90;;;;;;;4.35;100.00;100821.78;103203;1292;61818;-80
2023/02/26 18:23:51;;;;;;;69.10;26.30;;;;;;;4.35;100.00;100829.87;103176;1295;72446;-80
2023/02/26 18:26:21;;;;;;;64.30;25.30;;;;;;;4.34;100.00;100834.23;102968;1295;60284;-79
2023/02/26 18:28:48;;;;;;;67.40;27.90;;;;;;;4.35;100.00;100826.09;102649;1300;71402;-81
2023/02/26 18:31:14;;;;;;;65.80;24.40;;;;;;;4.33;100.00;100822.03;103225;1289;241108;-80
2023/02/26 18:33:43;;;;;;;62.20;24.40;;;;;;;4.30;100.00;100820.38;103188;1295;60358;-80
2023/02/26 18:36:36;;;;;;;64.80;24.30;;;;;;;4.27;100.00;100811.15;103354;1288;73578;-80
2023/02/26 18:39:12;;;;;;;65.40;23.70;;;;;;;4.22;100.00;100808.84;103276;1290;76892;-81
2023/02/26 18:41:38;;;;;;;76.10;26.20;;;;;;;4.20;100.00;100807.05;103379;1292;72299;-80
2023/02/26 18:44:03;;;;;;;68.90;26.00;;;;;;;4.19;100.00;100803.67;103557;1291;60395;-81
2023/02/26 18:46:29;;;;;;;75.50;27.80;;;;;;;4.16;100.00;100797.80;103489;1291;60492;-79
2023/02/26 18:48:55;;;;;;;76.10;27.80;;;;;;;4.17;100.00;100800.62;103367;1290;60386;-81
2023/02/26 18:51:21;;;;;;;88.90;31.10;;;;;;;4.17;100.00;100802.42;103289;1289;60466;-80
2023/02/26 18:53:46;;;;;;;83.40;32.00;;;;;;;4.17;100.00;100806.20;103509;1290;60498;-79
2023/02/26 18:56:29;;;;;;;91.50;35.70;;;;;;;4.19;100.00;100821.52;103768;1286;600912;-80
2023/02/26 18:58:55;;;;;;;91.50;35.10;;;;;;;4.18;100.00;100832.22;104225;1283;60312;-79
2023/02/26 19:01:20;;;;;;;93.40;35.30;;;;;;;4.21;100.00;100847.34;103552;1283;60367;-80
2023/02/26 19:03:46;;;;;;;86.50;32.30;;;;;;;4.22;100.00;100860.73;103502;1289;60395;-80
2023/02/26 19:06:11;;;;;;;91.50;29.70;;;;;;;4.25;100.00;100871.24;103765;1287;60409;-79
2023/02/26 19:08:37;;;;;;;74.60;28.70;;;;;;;4.26;100.00;100875.05;103586;1289;60446;-79
2023/02/26 19:11:02;;;;;;;96.60;31.60;;;;;;;4.28;100.00;100886.91;103465;1286;303446;-81
2023/02/26 19:16:50;;;;;;;83.70;30.80;;;;;;;4.35;100.00;100884.63;104335;1283;74914;-80
2023/02/26 19:19:16;;;;;;;88.30;31.30;;;;;;;4.32;100.00;100872.20;104041;1293;60404;-80
2023/02/26 19:35:19;;;;;;;86.50;30.60;;;;;;;4.15;100.00;100911.69;104017;1285;74024;-79
2023/02/26 19:37:45;;;;;;;95.90;34.70;;;;;;;4.19;100.00;100913.12;104004;1283;62267;-80
2023/02/26 19:40:15;;;;;;;105.20;36.50;;;;;;;4.21;100.00;100913.94;103467;1288;60402;-80
2023/02/26 19:42:41;;;;;;;99.70;34.50;;;;;;;4.19;100.00;100907.17;104038;1283;73161;-81
2023/02/26 19:45:07;;;;;;;90.60;32.50;;;;;;;4.17;100.00;100900.53;103997;1284;60270;-80
2023/02/26 19:51:00;;;;;;;110.00;37.00;;;;;;;4.17;100.00;100888.21;102945;1295;600301;-81
2023/02/26 19:56:48;;;;;;;95.00;34.40;;;;;;;4.10;100.00;100887.38;103262;1288;60679;-81
2023/02/26 19:59:14;;;;;;;96.40;32.30;;;;;;;4.10;100.00;100881.60;103286;1294;60375;-80
2023/02/26 20:01:40;;;;;;;91.80;32.80;;;;;;;4.08;100.00;100876.79;103358;1288;60400;-81
2023/02/26 20:04:06;;;;;;;89.10;30.90;;;;;;;4.07;100.00;100870.02;103116;1286;226123;-80
2023/02/26 20:06:35;;;;;;;85.10;30.00;;;;;;;4.04;100.00;100867.38;103484;1291;60386;-80
2023/02/26 20:09:01;;;;;;;85.20;27.10;;;;;;;4.02;100.00;100871.73;103472;1291;60437;-80
2023/02/26 20:14:57;;;;;;;76.40;25.50;;;;;;;4.06;100.00;100886.45;102919;1292;601093;-80
2023/02/26 20:17:23;;;;;;;81.00;28.00;;;;;;;4.05;100.00;100883.00;103100;1297;60650;-80
2023/02/26 20:19:48;;;;;;;77.40;25.30;;;;;;;4.03;100.00;100884.98;103038;1291;60354;-80
2023/02/26 20:22:15;;;;;;;77.80;26.30;;;;;;;4.03;100.00;100886.86;103135;1296;60410;-81
2023/02/26 20:24:40;;;;;;;81.30;26.80;;;;;;;4.02;100.00;100881.95;103337;1292;73646;-80
2023/02/26 20:27:06;;;;;;;87.00;27.70;;;;;;;4.00;100.00;100877.77;103304;1294;60439;-80
2023/02/26 20:29:32;;;;;;;88.40;27.60;;;;;;;3.98;100.00;100873.13;103451;1288;226539;-79
2023/02/26 20:31:57;;;;;;;79.30;25.60;;;;;;;3.97;100.00;100873.02;103256;1291;60921;-80
2023/02/26 20:34:23;;;;;;;86.50;27.20;;;;;;;3.95;100.00;100865.68;103313;1287;60485;-81
2023/02/26 20:36:49;;;;;;;82.70;27.30;;;;;;;3.93;100.00;100864.20;102980;1286;61326;-81
2023/02/26 20:39:17;;;;;;;87.50;27.60;;;;;;;3.89;100.00;100859.05;103656;1291;60341;-81
2023/02/26 20:41:47;;;;;;;90.10;27.00;;;;;;;3.87;100.00;100859.50;103484;1291;74395;-80
2023/02/26 20:44:12;;;;;;;88.40;27.70;;;;;;;3.86;100.00;100858.39;103017;1291;74768;-79
2023/02/26 20:46:38;;;;;;;80.10;27.20;;;;;;;3.82;100.00;100874.15;102845;1294;60559;-79
2023/02/26 20:49:10;;;;;;;78.10;25.80;;;;;;;3.81;100.00;100883.10;102961;1291;60349;-80
2023/02/26 20:51:36;;;;;;;75.50;25.10;;;;;;;3.80;100.00;100906.56;103186;1288;60375;-79
2023/02/26 20:54:01;;;;;;;75.30;25.00;;;;;;;3.77;100.00;100924.61;102932;1291;60211;-78
2023/02/26 20:56:27;;;;;;;72.60;24.90;;;;;;;3.80;100.00;100937.92;102964;1288;60347;-79
2023/02/26 21:02:19;;;;;;;63.20;22.70;;;;;;;3.82;100.00;100958.75;103049;1288;60901;-80
2023/02/26 21:04:46;;;;;;;84.10;21.70;;;;;;;3.81;100.00;100965.16;103198;1288;60362;-80
2023/02/26 21:07:16;;;;;;;76.40;24.00;;;;;;;3.80;100.00;100965.24;103432;1291;75335;-79
2023/02/26 21:09:43;;;;;;;64.40;22.60;;;;;;;3.79;100.00;100948.55;103547;1291;74659;-79
2023/02/26 21:12:09;;;;;;;49.70;19.40;;;;;;;3.75;100.00;100947.90;103473;1286;75653;-79
2023/02/26 21:14:35;;;;;;;56.50;19.30;;;;;;;3.71;100.00;100951.31;102819;1287;60391;-79
2023/02/26 21:17:03;;;;;;;49.10;18.80;;;;;;;3.68;100.00;100950.98;103341;1286;60384;-80
2023/02/26 21:19:29;;;;;;;54.10;18.30;;;;;;;3.64;100.00;100953.67;103378;1288;75891;-80
2023/02/26 21:21:55;;;;;;;55.10;18.80;;;;;;;3.63;100.00;100958.98;103404;1291;74666;-79
2023/02/26 21:24:21;;;;;;;52.80;18.70;;;;;;;3.62;100.00;100964.88;103415;1286;60393;-81
2023/02/26 21:26:47;;;;;;;52.60;18.50;;;;;;;3.60;100.00;100965.98;103457;1288;60344;-80
2023/02/26 21:29:13;;;;;;;47.20;17.30;;;;;;;3.59;100.00;100975.62;103241;1291;60443;-82
2023/02/26 21:31:39;;;;;;;51.10;18.00;;;;;;;3.57;100.00;100987.91;103224;1286;60397;-80